createdAt,value
2023-03-03T00:02:07.827Z,0.45
2023-03-03T00:04:38.583Z,0.30
2023-03-03T00:07:08.843Z,0.47
2023-03-03T00:09:39.324Z,0.30
2023-03-03T00:12:28.822Z,0.43
2023-03-03T00:15:00.091Z,0.38
2023-03-03T00:17:34.332Z,0.43
2023-03-03T00:20:29.746Z,0.70
2023-03-03T00:23:24.147Z,0.35
2023-03-03T00:25:56.698Z,0.40
2023-03-03T00:28:50.174Z,0.70
2023-03-03T00:31:29.233Z,0.50
2023-03-03T00:34:22.219Z,0.55
2023-03-03T00:36:58.988Z,0.50
2023-03-03T00:39:41.052Z,0.52
2023-03-03T00:42:21.478Z,0.50
2023-03-03T00:45:01.088Z,0.75
2023-03-03T00:47:41.455Z,0.73
2023-03-03T00:50:15.111Z,0.50
2023-03-03T00:53:07.990Z,0.75
2023-03-03T00:55:38.553Z,0.60
2023-03-03T00:58:09.010Z,0.50
2023-03-03T01:00:40.989Z,1.02
2023-03-03T01:03:16.328Z,0.50
2023-03-03T01:05:46.889Z,0.32
2023-03-03T01:08:17.881Z,0.70
2023-03-03T01:10:57.495Z,0.60
2023-03-03T01:13:32.436Z,0.40
2023-03-03T01:16:03.648Z,0.40
2023-03-03T01:18:34.537Z,0.60
2023-03-03T01:21:04.951Z,0.70
2023-03-03T01:23:35.395Z,0.60
2023-03-03T01:26:06.247Z,0.47
2023-03-03T01:28:37.048Z,0.43
2023-03-03T01:31:08.668Z,0.60
2023-03-03T01:33:39.513Z,0.57
2023-03-03T01:36:11.023Z,0.60
2023-03-03T01:38:42.026Z,0.68
2023-03-03T01:41:12.390Z,0.35
2023-03-03T01:43:48.404Z,0.43
2023-03-03T01:46:36.563Z,0.63
2023-03-03T01:49:15.065Z,0.80
2023-03-03T01:51:51.113Z,0.57
2023-03-03T01:54:44.259Z,0.63
2023-03-03T01:57:21.062Z,0.50
2023-03-03T01:59:53.297Z,0.43
2023-03-03T02:02:24.450Z,0.70
2023-03-03T02:04:56.355Z,0.60
2023-03-03T02:07:30.447Z,0.70
2023-03-03T02:10:13.900Z,0.60
2023-03-03T02:12:54.064Z,0.60
2023-03-03T02:15:29.426Z,0.50
2023-03-03T02:18:02.989Z,0.47
2023-03-03T02:21:03.828Z,0.57
2023-03-03T02:23:55.348Z,0.40
2023-03-03T02:26:28.616Z,0.57
2023-03-03T02:28:59.473Z,0.40
2023-03-03T02:31:32.597Z,0.60
2023-03-03T02:34:03.591Z,0.70
2023-03-03T02:36:40.014Z,0.60
2023-03-03T02:39:31.779Z,0.50
2023-03-03T02:42:21.339Z,0.63
2023-03-03T02:44:52.491Z,0.50
2023-03-03T02:47:22.844Z,0.55
2023-03-03T02:49:53.180Z,0.50
2023-03-03T02:52:23.447Z,0.55
2023-03-03T02:54:53.772Z,0.50
2023-03-03T02:57:24.105Z,0.40
2023-03-03T02:59:54.449Z,0.45
2023-03-03T03:02:24.887Z,0.50
2023-03-03T03:04:55.132Z,0.70
2023-03-03T03:07:25.803Z,0.40
2023-03-03T03:09:57.631Z,0.40
2023-03-03T03:12:28.639Z,0.70
2023-03-03T03:14:58.973Z,0.50
2023-03-03T03:17:29.418Z,0.60
2023-03-03T03:19:59.763Z,0.50
2023-03-03T03:22:30.157Z,0.40
2023-03-03T03:25:00.542Z,0.55
2023-03-03T03:27:30.867Z,1.15
2023-03-03T03:30:01.231Z,0.60
2023-03-03T03:32:32.390Z,0.40
2023-03-03T03:35:06.038Z,0.50
2023-03-03T03:37:36.789Z,0.52
2023-03-03T03:40:08.155Z,0.60
2023-03-03T03:42:39.296Z,0.60
2023-03-03T03:45:10.269Z,0.50
2023-03-03T03:47:40.818Z,0.40
2023-03-03T03:50:12.488Z,0.50
2023-03-03T03:52:42.898Z,0.60
2023-03-03T03:55:13.576Z,0.70
2023-03-03T03:57:44.931Z,0.55
2023-03-03T04:00:15.673Z,0.65
2023-03-03T04:02:47.794Z,0.50
2023-03-03T04:05:18.222Z,0.60
2023-03-03T04:07:48.918Z,0.77
2023-03-03T04:10:19.968Z,0.70
2023-03-03T04:12:50.300Z,0.80
2023-03-03T04:15:20.678Z,0.40
2023-03-03T04:17:51.101Z,0.80
2023-03-03T04:20:21.483Z,1.00
2023-03-03T04:22:52.342Z,0.60
2023-03-03T04:25:22.707Z,0.50
2023-03-03T04:27:54.600Z,0.88
2023-03-03T04:30:25.273Z,0.55
2023-03-03T04:32:55.890Z,0.82
2023-03-03T04:35:26.249Z,0.65
2023-03-03T04:37:56.711Z,0.70
2023-03-03T04:40:27.108Z,0.70
2023-03-03T04:42:57.456Z,0.40
2023-03-03T04:45:27.851Z,0.73
2023-03-03T04:47:58.210Z,0.43
2023-03-03T04:50:28.597Z,0.60
2023-03-03T04:52:59.016Z,0.50
2023-03-03T04:55:29.295Z,0.52
2023-03-03T04:57:59.739Z,0.60
2023-03-03T05:00:30.387Z,0.45
2023-03-03T05:03:01.694Z,0.60
2023-03-03T05:05:32.210Z,0.70
2023-03-03T05:08:02.507Z,0.52
2023-03-03T05:10:34.827Z,0.70
2023-03-03T05:13:05.838Z,0.60
2023-03-03T05:15:36.111Z,0.63
2023-03-03T05:18:06.911Z,0.70
2023-03-03T05:20:40.190Z,0.65
2023-03-03T05:23:11.618Z,0.65
2023-03-03T05:25:44.049Z,0.60
2023-03-03T05:28:15.757Z,0.60
2023-03-03T05:30:46.602Z,0.55
2023-03-03T05:33:19.118Z,0.55
2023-03-03T05:35:49.642Z,0.70
2023-03-03T05:38:22.625Z,0.90
2023-03-03T05:40:53.267Z,0.65
2023-03-03T05:43:23.869Z,0.80
2023-03-03T05:46:02.952Z,0.68
2023-03-03T05:48:41.198Z,0.60
2023-03-03T05:51:12.167Z,0.50
2023-03-03T05:53:43.508Z,0.75
2023-03-03T05:56:13.819Z,0.30
2023-03-03T05:58:45.796Z,0.50
2023-03-03T06:01:16.743Z,0.60
2023-03-03T06:03:47.681Z,0.80
2023-03-03T06:06:19.303Z,0.47
2023-03-03T06:08:51.161Z,0.60
2023-03-03T06:11:22.074Z,0.40
2023-03-03T06:13:52.563Z,0.25
2023-03-03T06:16:23.039Z,0.80
2023-03-03T06:18:53.408Z,0.43
2023-03-03T06:21:24.162Z,0.40
2023-03-03T06:23:54.522Z,0.30
2023-03-03T06:26:26.953Z,0.40
2023-03-03T06:28:58.050Z,0.40
2023-03-03T06:31:29.543Z,0.30
2023-03-03T06:33:59.927Z,0.30
2023-03-03T06:36:31.366Z,0.20
2023-03-03T06:39:02.714Z,0.55
2023-03-03T06:41:34.599Z,0.45
2023-03-03T06:44:05.049Z,0.43
2023-03-03T06:55:30.903Z,0.82
2023-03-03T06:58:02.776Z,0.38
2023-03-03T07:00:33.649Z,0.20
2023-03-03T07:03:16.665Z,0.20
2023-03-03T07:05:48.211Z,0.10
2023-03-03T07:08:26.827Z,0.38
2023-03-03T07:10:58.122Z,0.10
2023-03-03T07:13:30.991Z,0.17
2023-03-03T07:16:07.923Z,0.10
2023-03-03T07:18:46.550Z,0.20
2023-03-03T07:21:24.793Z,0.20
2023-03-03T07:23:58.731Z,0.10
2023-03-03T07:26:33.296Z,0.10
2023-03-03T07:29:17.970Z,0.70
2023-03-03T07:31:54.269Z,0.20
2023-03-03T07:34:33.066Z,0.20
2023-03-03T07:37:08.413Z,0.60
2023-03-03T07:39:41.563Z,0.20
2023-03-03T07:42:26.442Z,0.10
2023-03-03T07:45:22.959Z,0.10
2023-03-03T07:47:55.959Z,0.10
2023-03-03T07:50:26.803Z,0.17
2023-03-03T07:53:03.922Z,0.25
2023-03-03T07:55:39.709Z,0.10
2023-03-03T07:58:19.319Z,0.10
2023-03-03T08:01:27.675Z,0.10
2023-03-03T08:04:00.014Z,0.00
2023-03-03T08:06:41.675Z,0.00
2023-03-03T08:09:16.330Z,0.00
2023-03-03T08:12:02.289Z,0.00
2023-03-03T08:14:42.241Z,0.00
2023-03-03T08:17:27.994Z,0.00
2023-03-03T08:19:59.023Z,0.00
2023-03-03T08:22:38.102Z,0.00
2023-03-03T08:25:08.900Z,0.00
2023-03-03T08:27:39.263Z,0.10
2023-03-03T08:30:10.299Z,0.00
2023-03-03T08:32:40.715Z,0.00
2023-03-03T08:35:14.415Z,0.17
2023-03-03T08:37:44.710Z,0.00
2023-03-03T08:40:15.783Z,0.00
2023-03-03T08:42:46.643Z,0.00
2023-03-03T08:45:17.661Z,0.00
2023-03-03T08:47:49.581Z,0.00
2023-03-03T08:50:22.939Z,0.00
2023-03-03T08:52:55.194Z,0.00
2023-03-03T08:55:29.556Z,0.10
2023-03-03T08:58:00.459Z,0.05
2023-03-03T09:00:33.116Z,0.00
2023-03-03T09:03:03.940Z,0.10
2023-03-03T09:05:34.970Z,0.10
2023-03-03T09:08:06.697Z,0.20
2023-03-03T09:10:38.258Z,0.00
2023-03-03T09:13:18.814Z,0.08
2023-03-03T09:15:51.320Z,0.00
2023-03-03T09:18:39.453Z,0.10
2023-03-03T09:21:28.605Z,0.10
2023-03-03T09:24:01.899Z,0.10
2023-03-03T09:26:42.178Z,0.00
2023-03-03T09:29:19.052Z,0.10
2023-03-03T09:31:55.586Z,0.10
2023-03-03T09:37:02.579Z,0.20
2023-03-03T09:39:33.999Z,0.30
2023-03-03T09:42:22.784Z,0.10
2023-03-03T09:45:20.507Z,0.73
2023-03-03T09:48:03.970Z,0.00
2023-03-03T09:51:15.309Z,0.10
2023-03-03T09:54:22.705Z,0.10
2023-03-03T09:57:12.267Z,0.00
2023-03-03T10:00:07.913Z,0.10
2023-03-03T10:02:39.273Z,0.10
2023-03-03T10:05:16.722Z,0.20
2023-03-03T10:08:14.852Z,0.10
2023-03-03T10:11:04.062Z,0.22
2023-03-03T10:14:03.696Z,0.50
2023-03-03T10:16:59.273Z,0.10
2023-03-03T10:19:36.747Z,0.00
2023-03-03T10:22:20.437Z,0.17
2023-03-03T10:25:20.507Z,0.00
2023-03-03T10:28:06.107Z,0.10
2023-03-03T10:31:02.567Z,0.08
2023-03-03T10:33:55.372Z,0.10
2023-03-03T10:36:32.451Z,0.10
2023-03-03T10:39:08.759Z,0.00
2023-03-03T10:44:30.656Z,0.10
2023-03-03T10:47:01.446Z,0.00
2023-03-03T10:49:56.402Z,0.00
2023-03-03T10:52:36.350Z,0.00
2023-03-03T10:55:19.471Z,0.00
2023-03-03T10:57:57.000Z,0.08
2023-03-03T11:00:48.069Z,0.00
2023-03-03T11:03:24.126Z,0.00
2023-03-03T11:06:01.088Z,0.45
2023-03-03T11:08:49.956Z,0.17
2023-03-03T11:11:39.024Z,0.10
2023-03-03T11:14:09.675Z,0.00
2023-03-03T11:17:13.344Z,0.10
2023-03-03T11:19:54.752Z,0.10
2023-03-03T11:22:26.561Z,0.10
2023-03-03T11:25:24.418Z,0.10
2023-03-03T11:28:24.701Z,0.00
2023-03-03T11:31:31.722Z,0.10
2023-03-03T11:34:17.675Z,0.30
2023-03-03T11:37:06.406Z,0.10
2023-03-03T11:39:37.432Z,0.00
2023-03-03T11:42:26.090Z,0.10
2023-03-03T11:45:05.472Z,0.10
2023-03-03T11:47:48.170Z,0.10
2023-03-03T11:50:40.952Z,0.10
2023-03-03T11:53:48.398Z,0.10
2023-03-03T11:56:32.819Z,0.20
2023-03-03T11:59:11.966Z,0.20
2023-03-03T12:02:07.572Z,0.10
2023-03-03T12:05:01.398Z,0.10
2023-03-03T12:07:48.129Z,0.20
2023-03-03T12:10:24.826Z,0.20
2023-03-03T12:15:42.068Z,0.20
2023-03-03T12:21:19.345Z,0.10
2023-03-03T12:24:04.897Z,0.10
2023-03-03T12:27:02.244Z,0.28
2023-03-03T12:30:03.336Z,0.10
2023-03-03T12:33:02.603Z,0.20
2023-03-03T12:35:50.614Z,0.10
2023-03-03T12:38:31.855Z,0.10
2023-03-03T12:41:23.491Z,0.20
2023-03-03T12:44:15.198Z,0.17
2023-03-03T12:47:24.160Z,0.10
2023-03-03T12:50:17.916Z,0.20
2023-03-03T12:53:09.895Z,0.05
2023-03-03T12:55:57.409Z,0.10
2023-03-03T12:58:46.934Z,0.10
2023-03-03T13:01:19.932Z,0.10
2023-03-03T13:04:19.579Z,0.08
2023-03-03T13:07:13.645Z,0.10
2023-03-03T13:10:29.540Z,0.10
2023-03-03T13:13:18.749Z,0.10
2023-03-03T13:16:10.050Z,0.17
2023-03-03T13:18:59.612Z,0.20
2023-03-03T13:21:54.824Z,0.20
2023-03-03T13:24:35.991Z,0.10
2023-03-03T13:27:17.335Z,0.10
2023-03-03T13:30:05.191Z,0.20
2023-03-03T13:32:43.016Z,0.55
2023-03-03T13:35:35.306Z,0.13
2023-03-03T13:38:08.236Z,0.17
2023-03-03T13:40:52.865Z,0.30
2023-03-03T13:43:54.084Z,0.30
2023-03-03T13:46:52.144Z,0.30
2023-03-03T13:49:31.363Z,0.30
2023-03-03T13:52:08.329Z,0.40
2023-03-03T13:54:45.374Z,0.40
2023-03-03T13:57:38.806Z,0.88
2023-03-03T14:00:33.076Z,0.40
2023-03-03T14:03:21.202Z,0.57
2023-03-03T14:05:53.643Z,0.45
2023-03-03T14:08:30.557Z,0.60
2023-03-03T14:11:13.027Z,0.88
2023-03-03T14:14:01.650Z,1.10
2023-03-03T14:17:01.509Z,0.70
2023-03-03T14:19:40.094Z,0.63
2023-03-03T14:22:47.976Z,0.80
2023-03-03T14:25:19.293Z,0.70
2023-03-03T14:27:56.211Z,0.68
2023-03-03T14:30:37.460Z,0.95
2023-03-03T14:33:16.147Z,0.70
2023-03-03T14:35:54.940Z,0.73
2023-03-03T14:38:36.430Z,0.70
2023-03-03T14:41:19.849Z,0.90
2023-03-03T14:44:30.271Z,0.68
2023-03-03T14:47:27.254Z,0.60
2023-03-03T14:50:05.066Z,0.40
2023-03-03T14:52:37.998Z,0.93
2023-03-03T14:55:34.396Z,0.90
2023-03-03T14:58:07.260Z,0.70
2023-03-03T15:00:38.658Z,0.70
2023-03-03T15:03:30.734Z,1.20
2023-03-03T15:06:02.797Z,0.60
2023-03-03T15:08:40.237Z,0.60
2023-03-03T15:11:30.347Z,0.98
2023-03-03T15:14:22.139Z,0.60
2023-03-03T15:16:52.959Z,0.80
2023-03-03T15:20:08.933Z,0.52
2023-03-03T15:23:08.175Z,0.60
2023-03-03T15:25:45.185Z,0.93
2023-03-03T15:28:38.225Z,0.80
2023-03-03T15:31:38.333Z,1.20
2023-03-03T15:34:45.494Z,0.80
2023-03-03T15:37:30.854Z,0.90
2023-03-03T15:40:27.906Z,0.80
2023-03-03T15:43:30.490Z,0.63
2023-03-03T15:46:17.126Z,0.70
2023-03-03T15:49:13.859Z,0.50
2023-03-03T15:52:25.090Z,0.45
2023-03-03T15:55:22.489Z,0.77
2023-03-03T15:58:26.307Z,0.98
2023-03-03T16:01:36.025Z,0.60
2023-03-03T16:04:19.104Z,1.30
2023-03-03T16:06:50.075Z,0.80
2023-03-03T16:09:55.994Z,0.80
2023-03-03T16:12:44.185Z,0.90
2023-03-03T16:15:53.395Z,0.60
2023-03-03T16:19:06.247Z,1.13
2023-03-03T16:21:54.562Z,0.60
2023-03-03T16:24:44.775Z,0.65
2023-03-03T16:27:27.426Z,0.85
2023-03-03T16:30:20.637Z,0.68
2023-03-03T16:33:24.937Z,0.60
2023-03-03T16:36:14.905Z,0.75
2023-03-03T16:39:02.524Z,0.70
2023-03-03T16:42:05.149Z,0.70
2023-03-03T16:45:19.424Z,0.63
2023-03-03T16:48:01.626Z,0.85
2023-03-03T16:50:53.484Z,0.60
2023-03-03T16:53:44.269Z,0.60
2023-03-03T16:56:25.514Z,0.90
2023-03-03T16:59:09.807Z,0.82
2023-03-03T17:01:55.104Z,0.82
2023-03-03T17:05:01.070Z,0.80
2023-03-03T17:08:06.171Z,0.70
2023-03-03T17:11:05.910Z,0.70
2023-03-03T17:13:39.712Z,0.65
2023-03-03T17:16:51.149Z,0.70
2023-03-03T17:19:41.997Z,0.68
2023-03-03T17:22:38.600Z,0.80
2023-03-03T17:25:16.232Z,0.50
2023-03-03T17:28:29.430Z,0.77
2023-03-03T17:31:36.372Z,0.70
2023-03-03T17:34:40.738Z,0.80
2023-03-03T17:37:48.957Z,0.70
2023-03-03T17:40:50.819Z,0.88
2023-03-03T17:43:42.214Z,1.08
2023-03-03T17:46:45.745Z,0.80
2023-03-03T17:49:37.734Z,0.90
2023-03-03T17:52:38.386Z,0.65
2023-03-03T17:55:15.074Z,0.70
2023-03-03T17:58:05.689Z,0.75
2023-03-03T18:01:01.209Z,0.75
2023-03-03T18:04:07.951Z,0.50
2023-03-03T18:07:14.728Z,1.00
2023-03-03T18:10:03.243Z,0.70
2023-03-03T18:12:53.540Z,0.80
2023-03-03T18:15:39.940Z,0.88
2023-03-03T18:18:24.272Z,1.08
2023-03-03T18:21:14.308Z,0.80
2023-03-03T18:23:48.718Z,1.15
2023-03-03T18:26:46.573Z,0.80
2023-03-03T18:29:22.876Z,0.60
2023-03-03T18:31:57.476Z,0.90
2023-03-03T18:34:42.822Z,0.80
2023-03-03T18:37:31.606Z,0.95
2023-03-03T18:40:25.002Z,0.88
2023-03-03T18:42:56.224Z,0.98
2023-03-03T18:45:28.872Z,1.00
2023-03-03T18:48:16.606Z,1.13
2023-03-03T18:50:52.304Z,0.70
2023-03-03T18:53:32.129Z,0.70
2023-03-03T18:56:04.822Z,0.65
2023-03-03T18:58:39.673Z,0.70
2023-03-03T19:01:28.034Z,0.73
2023-03-03T19:04:06.591Z,0.70
2023-03-03T19:06:40.339Z,0.88
2023-03-03T19:09:20.204Z,0.70
2023-03-03T19:11:59.532Z,1.00
2023-03-03T19:14:31.298Z,0.70
2023-03-03T19:17:23.013Z,1.00
2023-03-03T19:20:11.828Z,1.70
2023-03-03T19:23:09.471Z,0.90
2023-03-03T19:25:43.931Z,1.23
2023-03-03T19:28:39.239Z,0.90
2023-03-03T19:31:37.879Z,1.00
2023-03-03T19:34:16.592Z,0.60
2023-03-03T19:37:11.237Z,0.70
2023-03-03T19:40:16.515Z,0.80
2023-03-03T19:43:05.711Z,0.70
2023-03-03T19:45:54.910Z,0.73
2023-03-03T19:48:50.220Z,0.95
2023-03-03T19:51:36.729Z,1.15
2023-03-03T19:54:45.834Z,0.85
2023-03-03T19:57:38.992Z,1.63
2023-03-03T20:00:27.698Z,0.80
2023-03-03T20:03:29.794Z,1.10
2023-03-03T20:06:17.284Z,0.90
2023-03-03T20:08:54.969Z,0.85
2023-03-03T20:12:00.978Z,0.68
2023-03-03T20:14:50.828Z,0.80
2023-03-03T20:17:33.995Z,0.52
2023-03-03T20:20:06.938Z,1.13
2023-03-03T20:22:48.588Z,1.02
2023-03-03T20:25:39.171Z,0.90
2023-03-03T20:28:12.418Z,1.15
2023-03-03T20:30:53.895Z,0.88
2023-03-03T20:33:35.284Z,1.00
2023-03-03T20:36:45.329Z,1.45
2023-03-03T20:39:48.201Z,1.10
2023-03-03T20:42:44.144Z,2.30
2023-03-03T20:45:23.650Z,1.58
2023-03-03T20:48:12.297Z,1.20
2023-03-03T20:50:54.558Z,1.23
2023-03-03T20:53:37.111Z,1.20
2023-03-03T20:56:31.327Z,1.50
2023-03-03T20:59:30.483Z,0.95
2023-03-03T21:02:07.135Z,1.15
2023-03-03T21:04:38.010Z,1.60
2023-03-03T21:07:08.715Z,0.80
2023-03-03T21:09:41.552Z,0.90
2023-03-03T21:12:33.165Z,1.08
2023-03-03T21:15:28.406Z,0.88
2023-03-03T21:18:01.155Z,1.10
2023-03-03T21:20:38.483Z,1.60
2023-03-03T21:23:13.446Z,1.08
2023-03-03T21:25:43.646Z,1.77
2023-03-03T21:28:35.880Z,1.75
2023-03-03T21:31:15.483Z,1.90
2023-03-03T21:33:51.536Z,1.73
2023-03-03T21:36:38.988Z,1.10
2023-03-03T21:39:35.354Z,1.10
2023-03-03T21:42:18.210Z,1.65
2023-03-03T21:44:52.949Z,1.13
2023-03-03T21:47:25.730Z,1.20
2023-03-03T21:49:56.782Z,1.02
2023-03-03T21:52:27.558Z,0.90
2023-03-03T21:54:58.298Z,1.35
2023-03-03T21:57:29.884Z,0.90
2023-03-03T22:00:01.830Z,0.90
2023-03-03T22:02:32.119Z,0.93
2023-03-03T22:05:05.511Z,1.50
2023-03-03T22:07:36.669Z,1.10
2023-03-03T22:10:10.392Z,1.02
2023-03-03T22:12:41.532Z,1.00
2023-03-03T22:15:12.718Z,0.95
2023-03-03T22:17:45.228Z,1.10
2023-03-03T22:20:20.357Z,0.80
2023-03-03T22:22:53.026Z,0.70
2023-03-03T22:25:23.442Z,0.77
2023-03-03T22:27:54.072Z,0.63
2023-03-03T22:30:24.856Z,0.73
2023-03-03T22:32:56.386Z,0.70
2023-03-03T22:35:27.988Z,0.77
2023-03-03T22:37:58.330Z,0.60
2023-03-03T22:40:29.494Z,0.80
2023-03-03T22:42:59.853Z,0.75
2023-03-03T22:45:30.735Z,0.90
2023-03-03T22:48:03.406Z,0.70
2023-03-03T22:50:35.304Z,0.60
2023-03-03T22:53:05.967Z,0.95
2023-03-03T22:55:38.706Z,0.80
2023-03-03T22:58:09.947Z,1.42
2023-03-03T23:00:42.698Z,0.70
2023-03-03T23:03:16.953Z,0.40
2023-03-03T23:05:48.512Z,0.50
2023-03-03T23:08:29.700Z,0.57
2023-03-03T23:11:00.280Z,0.63
2023-03-03T23:13:32.201Z,0.60
2023-03-03T23:16:04.880Z,1.02
2023-03-03T23:18:35.720Z,0.85
2023-03-03T23:21:06.274Z,0.95
2023-03-03T23:23:36.930Z,1.00
2023-03-03T23:26:07.441Z,0.50
2023-03-03T23:28:37.711Z,0.70
2023-03-03T23:31:09.612Z,0.68
2023-03-03T23:33:39.979Z,0.60
2023-03-03T23:36:11.134Z,0.43
2023-03-03T23:38:43.163Z,0.40
2023-03-03T23:41:14.730Z,0.30
2023-03-03T23:43:47.097Z,0.50
2023-03-03T23:46:18.123Z,0.40
2023-03-03T23:48:48.938Z,0.63
2023-03-03T23:51:19.197Z,0.50
2023-03-03T23:53:49.874Z,0.47
2023-03-03T23:56:20.641Z,0.32
2023-03-03T23:58:50.956Z,0.60
